createdAt,value
2018-05-18T00:02:24.868Z,7.67
2018-05-18T00:04:54.582Z,7.47
2018-05-18T00:07:24.374Z,7.40
2018-05-18T00:09:54.069Z,5.87
2018-05-18T00:12:24.544Z,6.67
2018-05-18T00:14:54.919Z,6.83
2018-05-18T00:17:25.455Z,6.47
2018-05-18T00:19:56.518Z,6.80
2018-05-18T00:22:26.249Z,6.90
2018-05-18T00:24:55.936Z,7.50
2018-05-18T00:27:25.676Z,7.77
2018-05-18T00:29:55.341Z,6.80
2018-05-18T00:32:25.894Z,16.60
2018-05-18T00:34:55.620Z,8.13
2018-05-18T00:37:25.328Z,8.10
2018-05-18T00:39:55.130Z,9.73
2018-05-18T00:42:24.841Z,14.83
2018-05-18T00:44:54.604Z,13.27
2018-05-18T00:47:25.134Z,9.00
2018-05-18T00:49:55.865Z,13.20
2018-05-18T00:52:26.374Z,8.73
2018-05-18T00:54:56.110Z,12.40
2018-05-18T00:57:26.616Z,8.97
2018-05-18T00:59:56.322Z,10.97
2018-05-18T01:02:26.398Z,12.90
2018-05-18T01:04:56.112Z,10.53
2018-05-18T01:07:25.956Z,10.83
2018-05-18T01:09:55.778Z,11.60
2018-05-18T01:12:26.364Z,13.70
2018-05-18T01:14:56.082Z,10.50
2018-05-18T01:17:25.832Z,11.77
2018-05-18T01:19:56.073Z,12.80
2018-05-18T01:22:26.618Z,13.17
2018-05-18T01:24:57.380Z,13.97
2018-05-18T01:27:27.143Z,13.50
2018-05-18T01:29:57.709Z,12.70
2018-05-18T01:32:27.459Z,13.30
2018-05-18T01:34:57.932Z,13.30
2018-05-18T01:37:29.318Z,12.00
2018-05-18T01:39:59.076Z,12.70
2018-05-18T01:42:29.579Z,12.87
2018-05-18T01:44:59.340Z,12.10
2018-05-18T01:47:29.406Z,13.27
2018-05-18T01:49:59.267Z,13.43
2018-05-18T01:52:28.987Z,13.27
2018-05-18T01:54:59.274Z,12.53
2018-05-18T01:57:29.771Z,12.67
2018-05-18T01:59:59.513Z,12.63
2018-05-18T02:02:30.003Z,13.40
2018-05-18T02:04:59.723Z,14.37
2018-05-18T02:07:29.866Z,13.30
2018-05-18T02:09:59.580Z,12.97
2018-05-18T02:12:30.351Z,13.77
2018-05-18T02:15:00.063Z,13.00
2018-05-18T02:17:29.749Z,13.87
2018-05-18T02:20:00.276Z,15.30
2018-05-18T02:22:30.042Z,13.60
2018-05-18T02:25:00.106Z,21.07
2018-05-18T02:27:30.665Z,13.23
2018-05-18T02:30:01.179Z,11.67
2018-05-18T02:32:30.895Z,11.43
2018-05-18T02:35:00.586Z,14.00
2018-05-18T02:37:31.307Z,16.90
2018-05-18T02:40:01.904Z,15.40
2018-05-18T02:42:32.082Z,12.47
2018-05-18T02:45:01.787Z,13.80
2018-05-18T02:47:31.501Z,11.30
2018-05-18T02:50:01.228Z,11.47
2018-05-18T02:52:31.013Z,11.33
2018-05-18T02:55:02.048Z,10.67
2018-05-18T02:57:31.772Z,10.57
2018-05-18T03:00:02.802Z,10.27
2018-05-18T03:02:32.519Z,12.33
2018-05-18T03:05:03.056Z,10.93
2018-05-18T03:07:32.780Z,10.93
2018-05-18T03:10:02.488Z,11.20
2018-05-18T03:12:32.727Z,11.33
2018-05-18T03:15:02.489Z,10.13
2018-05-18T03:17:32.225Z,10.30
2018-05-18T03:20:01.931Z,10.90
2018-05-18T03:22:31.723Z,11.40
2018-05-18T03:25:01.457Z,13.33
2018-05-18T03:27:31.189Z,11.73
2018-05-18T03:30:01.458Z,11.83
2018-05-18T03:32:31.971Z,16.20
2018-05-18T03:35:01.724Z,11.97
2018-05-18T03:37:31.460Z,12.37
2018-05-18T03:40:01.164Z,13.10
2018-05-18T03:42:32.174Z,13.30
2018-05-18T03:45:01.900Z,11.97
2018-05-18T03:47:31.672Z,12.80
2018-05-18T03:50:02.112Z,14.07
2018-05-18T03:52:33.658Z,11.90
2018-05-18T03:55:04.150Z,11.80
2018-05-18T03:57:33.883Z,10.57
2018-05-18T04:00:04.704Z,13.37
2018-05-18T04:02:45.609Z,11.87
2018-05-18T04:05:27.192Z,12.17
2018-05-18T04:08:08.717Z,12.30
2018-05-18T04:10:38.607Z,11.67
2018-05-18T04:13:09.042Z,11.37
2018-05-18T04:15:38.733Z,11.23
2018-05-18T04:18:09.230Z,11.20
2018-05-18T04:20:38.971Z,12.10
2018-05-18T04:23:09.494Z,11.50
2018-05-18T04:25:39.968Z,11.33
2018-05-18T04:28:09.691Z,11.00
2018-05-18T04:30:39.732Z,13.60
2018-05-18T04:33:09.442Z,11.60
2018-05-18T04:35:39.128Z,11.47
2018-05-18T04:38:08.838Z,10.50
2018-05-18T04:40:38.636Z,11.73
2018-05-18T04:43:09.013Z,10.60
2018-05-18T04:45:39.540Z,10.00
2018-05-18T04:48:10.892Z,9.97
2018-05-18T04:50:42.389Z,10.33
2018-05-18T04:53:12.090Z,10.73
2018-05-18T04:55:41.785Z,10.07
2018-05-18T04:58:11.506Z,10.97
2018-05-18T05:00:41.375Z,10.43
2018-05-18T05:03:11.854Z,10.83
2018-05-18T05:05:41.548Z,10.60
2018-05-18T05:08:11.306Z,10.67
2018-05-18T05:10:41.178Z,10.10
2018-05-18T05:13:10.879Z,10.30
2018-05-18T05:15:40.589Z,9.90
2018-05-18T05:18:10.911Z,10.53
2018-05-18T05:20:40.743Z,10.10
2018-05-18T05:23:10.456Z,9.67
2018-05-18T05:25:40.254Z,9.90
2018-05-18T05:28:09.995Z,9.67
2018-05-18T05:30:40.843Z,9.90
2018-05-18T05:33:10.576Z,9.90
2018-05-18T05:35:42.190Z,9.47
2018-05-18T05:38:11.953Z,9.70
2018-05-18T05:40:42.502Z,9.73
2018-05-18T05:43:12.231Z,9.73
2018-05-18T05:45:41.972Z,10.03
2018-05-18T05:48:11.915Z,8.20
2018-05-18T05:50:42.395Z,8.63
2018-05-18T05:53:12.229Z,9.30
2018-05-18T05:55:41.946Z,8.53
2018-05-18T05:58:11.664Z,8.23
2018-05-18T06:00:42.107Z,9.17
2018-05-18T06:03:12.596Z,8.80
2018-05-18T06:05:42.631Z,9.97
2018-05-18T06:08:13.133Z,8.37
2018-05-18T06:10:42.994Z,8.20
2018-05-18T06:13:12.726Z,8.07
2018-05-18T06:15:42.447Z,7.83
2018-05-18T06:18:12.188Z,8.80
2018-05-18T06:20:41.895Z,8.63
2018-05-18T06:23:12.028Z,7.43
2018-05-18T06:25:42.502Z,7.40
2018-05-18T06:28:12.225Z,8.30
2018-05-18T06:30:41.952Z,8.03
2018-05-18T06:33:12.452Z,7.63
2018-05-18T06:35:43.462Z,8.03
2018-05-18T06:38:13.978Z,6.80
2018-05-18T06:40:45.001Z,7.90
2018-05-18T06:43:15.550Z,6.77
2018-05-18T06:45:46.075Z,7.70
2018-05-18T06:48:15.993Z,6.77
2018-05-18T06:50:46.530Z,6.03
2018-05-18T06:53:17.114Z,6.23
2018-05-18T06:55:46.865Z,6.57
2018-05-18T06:58:17.398Z,5.87
2018-05-18T07:00:47.854Z,5.90
2018-05-18T07:03:17.559Z,4.90
2018-05-18T07:05:47.276Z,5.97
2018-05-18T07:08:17.005Z,5.17
2018-05-18T07:10:47.274Z,6.00
2018-05-18T07:13:17.807Z,4.80
2018-05-18T07:15:48.355Z,5.57
2018-05-18T07:18:18.107Z,5.83
2018-05-18T07:20:47.826Z,4.70
2018-05-18T07:23:17.658Z,4.60
2018-05-18T07:25:48.141Z,4.50
2018-05-18T07:28:18.222Z,5.50
2018-05-18T07:30:48.721Z,3.83
2018-05-18T07:33:18.433Z,4.27
2018-05-18T07:35:48.158Z,4.47
2018-05-18T07:38:18.611Z,4.27
2018-05-18T07:40:49.522Z,5.13
2018-05-18T07:43:20.048Z,3.83
2018-05-18T07:45:50.556Z,4.30
2018-05-18T07:48:20.285Z,4.13
2018-05-18T07:50:50.792Z,3.40
2018-05-18T07:53:20.528Z,3.90
2018-05-18T07:55:51.042Z,4.20
2018-05-18T07:58:21.165Z,4.03
2018-05-18T08:00:51.660Z,3.87
2018-05-18T08:03:21.360Z,3.77
2018-05-18T08:05:51.883Z,4.93
2018-05-18T08:08:21.601Z,6.40
2018-05-18T08:10:51.347Z,3.60
2018-05-18T08:13:21.089Z,4.10
2018-05-18T08:15:51.176Z,4.00
2018-05-18T08:18:20.939Z,3.73
2018-05-18T08:20:50.650Z,3.70
2018-05-18T08:23:20.372Z,3.97
2018-05-18T08:25:50.092Z,7.13
2018-05-18T08:28:20.742Z,4.27
2018-05-18T08:31:01.485Z,4.37
2018-05-18T08:33:31.182Z,4.40
2018-05-18T08:36:00.916Z,5.00
2018-05-18T08:38:30.611Z,4.77
2018-05-18T08:41:01.459Z,4.67
2018-05-18T08:43:31.169Z,8.77
2018-05-18T08:46:01.314Z,8.63
2018-05-18T08:48:31.041Z,8.60
2018-05-18T08:51:01.500Z,6.33
2018-05-18T08:53:31.219Z,9.07
2018-05-18T08:56:00.911Z,8.90
2018-05-18T08:58:31.312Z,7.80
2018-05-18T09:01:01.805Z,8.20
2018-05-18T09:03:31.977Z,9.43
2018-05-18T09:06:01.747Z,7.43
2018-05-18T09:08:31.446Z,8.63
2018-05-18T09:11:01.150Z,7.00
2018-05-18T09:13:30.824Z,6.63
2018-05-18T09:16:01.839Z,9.60
2018-05-18T09:18:32.342Z,7.47
2018-05-18T09:21:02.043Z,9.90
2018-05-18T09:23:31.752Z,9.97
2018-05-18T09:26:01.458Z,8.70
2018-05-18T09:28:31.695Z,9.03
2018-05-18T09:31:01.404Z,5.30
2018-05-18T09:33:32.172Z,6.40
2018-05-18T09:36:02.686Z,7.90
2018-05-18T09:38:33.179Z,5.13
2018-05-18T09:41:02.911Z,6.90
2018-05-18T09:43:32.612Z,8.60
2018-05-18T09:46:03.703Z,7.13
2018-05-18T09:48:33.425Z,6.90
2018-05-18T09:51:05.562Z,7.80
2018-05-18T09:53:36.061Z,5.37
2018-05-18T09:56:05.777Z,6.27
2018-05-18T09:58:35.493Z,4.80
2018-05-18T10:01:05.191Z,4.73
2018-05-18T10:03:35.264Z,6.07
2018-05-18T10:06:04.958Z,7.80
2018-05-18T10:08:34.779Z,4.97
2018-05-18T10:11:04.484Z,4.50
2018-05-18T10:13:34.213Z,5.50
2018-05-18T10:16:03.936Z,4.60
2018-05-18T10:18:33.741Z,5.30
2018-05-18T10:21:04.022Z,4.30
2018-05-18T10:23:34.513Z,8.30
2018-05-18T10:26:09.772Z,4.00
2018-05-18T10:28:40.270Z,4.67
2018-05-18T10:31:10.002Z,3.83
2018-05-18T10:33:40.170Z,4.73
2018-05-18T10:36:11.119Z,5.90
2018-05-18T10:38:41.962Z,3.80
2018-05-18T10:41:11.697Z,3.53
2018-05-18T10:43:41.478Z,5.43
2018-05-18T10:46:11.411Z,5.10
2018-05-18T10:48:41.217Z,4.53
2018-05-18T10:51:11.313Z,4.40
2018-05-18T10:53:41.094Z,3.73
2018-05-18T10:56:11.659Z,6.57
2018-05-18T10:58:41.601Z,4.13
2018-05-18T11:01:11.393Z,4.10
2018-05-18T11:03:41.121Z,3.50
2018-05-18T11:06:10.849Z,3.73
2018-05-18T11:08:41.051Z,7.40
2018-05-18T11:11:11.559Z,3.73
2018-05-18T11:13:41.273Z,5.10
2018-05-18T11:16:10.970Z,3.90
2018-05-18T11:18:40.710Z,4.80
2018-05-18T11:21:10.703Z,4.43
2018-05-18T11:23:40.478Z,4.30
2018-05-18T11:26:11.639Z,4.93
2018-05-18T11:28:41.406Z,4.43
2018-05-18T11:31:11.132Z,5.73
2018-05-18T11:33:40.873Z,3.83
2018-05-18T11:36:10.617Z,4.60
2018-05-18T11:38:40.812Z,5.30
2018-05-18T11:41:10.531Z,7.43
2018-05-18T11:43:40.724Z,5.00
2018-05-18T11:46:11.226Z,4.23
2018-05-18T11:48:40.977Z,5.57
2018-05-18T11:51:10.734Z,4.20
2018-05-18T11:53:40.457Z,2.90
2018-05-18T11:56:11.206Z,4.30
2018-05-18T11:58:41.723Z,3.20
2018-05-18T12:01:11.450Z,3.40
2018-05-18T12:03:41.964Z,4.10
2018-05-18T12:06:11.701Z,4.00
2018-05-18T12:08:44.183Z,6.23
2018-05-18T12:11:14.733Z,3.90
2018-05-18T12:13:45.121Z,3.40
2018-05-18T12:16:15.736Z,3.07
2018-05-18T12:18:46.265Z,2.67
2018-05-18T12:21:16.027Z,3.10
2018-05-18T12:23:45.745Z,3.27
2018-05-18T12:26:15.858Z,3.60
2018-05-18T12:28:45.678Z,4.67
2018-05-18T12:31:15.670Z,6.87
2018-05-18T12:33:45.430Z,4.33
2018-05-18T12:36:15.174Z,3.43
2018-05-18T12:38:45.685Z,3.10
2018-05-18T12:41:16.178Z,5.37
2018-05-18T12:43:46.440Z,4.10
2018-05-18T12:46:16.955Z,4.40
2018-05-18T12:48:46.701Z,3.73
2018-05-18T12:51:16.447Z,5.07
2018-05-18T12:53:47.130Z,3.70
2018-05-18T12:56:17.998Z,3.10
2018-05-18T12:58:48.783Z,3.77
2018-05-18T13:01:19.736Z,6.93
2018-05-18T13:03:50.228Z,9.67
2018-05-18T13:06:20.390Z,5.43
2018-05-18T13:08:50.154Z,7.67
2018-05-18T13:11:19.886Z,8.50
2018-05-18T13:13:50.144Z,10.23
2018-05-18T13:16:19.874Z,7.30
2018-05-18T13:18:49.765Z,7.20
2018-05-18T13:21:19.537Z,5.00
2018-05-18T13:23:49.288Z,9.40
2018-05-18T13:26:19.004Z,5.57
2018-05-18T13:28:48.756Z,7.70
2018-05-18T13:31:19.564Z,6.53
2018-05-18T13:33:49.314Z,10.70
2018-05-18T13:36:19.094Z,10.63
2018-05-18T13:38:48.940Z,21.00
2018-05-18T13:41:19.732Z,7.77
2018-05-18T13:43:49.927Z,11.03
2018-05-18T13:46:20.424Z,10.70
2018-05-18T13:48:50.396Z,11.13
2018-05-18T13:51:20.121Z,5.80
2018-05-18T13:53:49.886Z,5.73
2018-05-18T13:56:20.380Z,5.07
2018-05-18T13:58:50.132Z,7.67
2018-05-18T14:01:21.101Z,6.00
2018-05-18T14:03:51.575Z,7.43
2018-05-18T14:06:21.840Z,5.43
2018-05-18T14:08:52.599Z,7.80
2018-05-18T14:11:22.379Z,6.30
2018-05-18T14:13:52.128Z,7.97
2018-05-18T14:16:21.860Z,9.27
2018-05-18T14:18:51.929Z,4.97
2018-05-18T14:21:21.771Z,9.90
2018-05-18T14:23:51.529Z,5.73
2018-05-18T14:26:22.423Z,12.23
2018-05-18T14:28:52.398Z,9.07
2018-05-18T14:31:22.413Z,9.57
2018-05-18T14:33:52.437Z,10.60
2018-05-18T14:36:24.081Z,11.33
2018-05-18T14:38:54.203Z,11.67
2018-05-18T14:41:24.339Z,8.33
2018-05-18T14:43:55.285Z,7.73
2018-05-18T14:46:25.423Z,4.70
2018-05-18T14:48:55.390Z,11.00
2018-05-18T14:51:25.223Z,16.60
2018-05-18T14:53:55.655Z,9.77
2018-05-18T14:56:25.447Z,10.73
2018-05-18T14:58:55.361Z,8.67
2018-05-18T15:01:25.196Z,6.93
2018-05-18T15:03:55.094Z,9.97
2018-05-18T15:06:25.035Z,5.83
2018-05-18T15:08:55.150Z,5.50
2018-05-18T15:11:25.849Z,4.90
2018-05-18T15:13:56.041Z,6.07
2018-05-18T15:16:25.926Z,5.57
2018-05-18T15:18:55.837Z,3.83
2018-05-18T15:21:26.810Z,6.97
2018-05-18T15:23:56.624Z,5.93
2018-05-18T15:26:26.813Z,5.00
2018-05-18T15:28:58.018Z,5.13
2018-05-18T15:31:28.062Z,4.93
2018-05-18T15:33:58.118Z,5.20
2018-05-18T15:36:28.491Z,4.67
2018-05-18T15:38:59.455Z,3.87
2018-05-18T15:41:29.499Z,4.10
2018-05-18T15:44:00.174Z,5.90
2018-05-18T15:46:30.336Z,3.90
2018-05-18T15:49:00.336Z,5.40
2018-05-18T15:51:30.137Z,4.80
2018-05-18T15:54:00.186Z,5.47
2018-05-18T15:56:30.812Z,4.90
2018-05-18T15:59:01.260Z,9.07
2018-05-18T16:01:31.397Z,6.83
2018-05-18T16:04:03.473Z,5.40
2018-05-18T16:06:33.193Z,7.23
2018-05-18T16:09:03.085Z,4.67
2018-05-18T16:11:32.837Z,5.10
2018-05-18T16:14:02.564Z,4.20
2018-05-18T16:16:32.375Z,5.90
2018-05-18T16:19:02.106Z,10.30
2018-05-18T16:21:32.146Z,4.83
2018-05-18T16:24:02.652Z,6.40
2018-05-18T16:26:32.386Z,6.00
2018-05-18T16:29:02.902Z,27.30
2018-05-18T16:31:33.385Z,6.20
2018-05-18T16:34:03.593Z,5.30
2018-05-18T16:36:33.313Z,4.97
2018-05-18T16:39:03.296Z,4.97
2018-05-18T16:41:34.146Z,9.67
2018-05-18T16:44:03.941Z,4.97
2018-05-18T16:46:34.763Z,13.83
2018-05-18T16:49:05.310Z,5.90
2018-05-18T16:51:35.771Z,4.10
2018-05-18T16:54:05.542Z,5.10
2018-05-18T16:56:36.865Z,3.40
2018-05-18T16:59:06.594Z,6.40
2018-05-18T17:01:37.105Z,4.77
2018-05-18T17:04:07.260Z,4.10
2018-05-18T17:06:37.263Z,4.00
2018-05-18T17:09:08.176Z,3.47
2018-05-18T17:11:37.950Z,4.63
2018-05-18T17:14:07.651Z,5.35
2018-05-18T17:16:37.404Z,6.10
2018-05-18T17:19:07.136Z,3.37
2018-05-18T23:30:06.757Z,4.33
2018-05-18T23:32:36.928Z,5.63
2018-05-18T23:35:06.660Z,8.40
2018-05-18T23:37:36.317Z,4.00
2018-05-18T23:40:06.835Z,4.07
2018-05-18T23:42:37.366Z,7.00
2018-05-18T23:45:08.412Z,4.17
2018-05-18T23:47:38.932Z,4.40
2018-05-18T23:50:09.621Z,4.20
2018-05-18T23:52:39.245Z,5.17
2018-05-18T23:55:09.010Z,3.93
2018-05-18T23:57:38.615Z,4.10
